Time,TemperatureF,DewpointF,PressureIn,WindDirection,WindDirectionDegrees,WindSpeedMPH,WindSpeedGustMPH,Humidity,HourlyPrecipIn,Conditions,Clouds,dailyrainin,SoftwareType,DateUTC
2013-09-11 03:00:00,56.3,40.4,27.29,NNW,345,0.0,0.0,55,0.00,,,0.00,VWS V14.01,2013-09-11 10:00:00,
2013-09-11 03:05:00,56.3,40.8,27.29,NNW,345,0.0,0.0,56,0.00,,,0.00,VWS V14.01,2013-09-11 10:05:00,
2013-09-11 03:10:00,55.9,40.5,27.29,NNW,345,0.0,0.0,56,0.00,,,0.00,VWS V14.01,2013-09-11 10:10:00,
2013-09-11 03:15:00,55.8,40.3,27.29,NNW,345,0.0,0.0,56,0.00,,,0.00,VWS V14.01,2013-09-11 10:15:00,
2013-09-11 10:34:00,70.5,42.3,27.34,SSE,148,0.0,0.0,36,0.00,,,0.00,VWS V14.01,2013-09-11 17:34:00,
2013-09-11 10:39:00,71.2,42.2,27.34,NW,310,0.0,3.6,35,0.00,,,0.00,VWS V14.01,2013-09-11 17:39:00,
2013-09-11 10:44:00,72.5,41.8,27.32,West,281,3.1,4.0,33,0.00,,,0.00,VWS V14.01,2013-09-11 17:44:00,
2013-09-11 10:49:00,72.7,42.0,27.32,ENE,70,0.0,4.0,33,0.00,,,0.00,VWS V14.01,2013-09-11 17:49:00,
2013-09-11 10:54:00,72.9,42.1,27.32,NNE,19,2.7,4.0,33,0.00,,,0.00,VWS V14.01,2013-09-11 17:54:00,
2013-09-11 10:59:00,73.2,42.4,27.32,NNW,340,0.0,4.0,33,0.00,,,0.00,VWS V14.01,2013-09-11 17:59:00,
2013-09-11 11:04:00,73.6,41.9,27.32,ENE,68,0.0,2.7,32,0.00,,,0.00,VWS V14.01,2013-09-11 18:04:00,
2013-09-11 11:07:00,73.6,41.9,27.32,WNW,285,3.1,3.1,32,0.00,,,0.00,VWS V14.01,2013-09-11 18:07:00,
2013-09-11 14:14:00,73.6,41.9,27.32,WNW,285,3.1,3.1,32,0.00,,,0.00,VWS V14.01,2013-09-11 21:14:00,
2013-09-11 14:19:00,85.1,40.8,27.29,NNW,340,0.0,8.1,21,0.00,,,0.00,VWS V14.01,2013-09-11 21:19:00,
2013-09-11 14:24:00,85.3,41.0,27.29,North,11,4.0,8.1,21,0.00,,,0.00,VWS V14.01,2013-09-11 21:24:00,
2013-09-11 14:30:00,85.1,40.8,27.29,North,7,4.0,8.1,21,0.00,,,0.00,VWS V14.01,2013-09-11 21:30:00,
2013-09-11 14:35:00,85.8,41.4,27.29,NNW,334,0.0,8.1,21,0.00,,,0.00,VWS V14.01,2013-09-11 21:35:00,
2013-09-11 14:40:00,86.2,40.5,27.29,SSE,161,4.0,8.1,20,0.00,,,0.00,VWS V14.01,2013-09-11 21:40:00,
2013-09-11 14:45:00,86.5,40.8,27.29,ESE,117,2.7,8.1,20,0.00,,,0.00,VWS V14.01,2013-09-11 21:45:00,
2013-09-11 14:49:00,86.7,40.9,27.29,ENE,65,2.7,8.1,20,0.00,,,0.00,VWS V14.01,2013-09-11 21:49:00,
2013-09-11 14:54:00,86.9,41.0,27.29,NNE,18,0.0,8.1,20,0.00,,,0.00,VWS V14.01,2013-09-11 21:54:00,
2013-09-11 14:59:00,86.5,40.8,27.29,North,6,3.1,8.1,20,0.00,,,0.00,VWS V14.01,2013-09-11 21:59:00,
2013-09-11 15:04:00,86.4,40.6,27.29,NNW,346,4.0,4.9,20,0.00,,,0.00,VWS V14.01,2013-09-11 22:04:00,
2013-09-11 15:09:00,86.5,40.8,27.29,NNW,345,0.0,7.6,20,0.00,,,0.00,VWS V14.01,2013-09-11 22:09:00,
2013-09-11 15:14:00,86.5,40.8,27.29,West,275,3.6,7.6,20,0.00,,,0.00,VWS V14.01,2013-09-11 22:14:00,
2013-09-11 15:19:00,87.1,41.2,27.29,NW,309,0.0,7.6,20,0.00,,,0.00,VWS V14.01,2013-09-11 22:19:00,
2013-09-11 15:24:00,87.4,41.5,27.29,NNW,344,2.2,7.6,20,0.00,,,0.00,VWS V14.01,2013-09-11 22:24:00,
2013-09-11 15:29:00,88.0,40.6,27.26,NNW,336,0.0,7.6,19,0.00,,,0.00,VWS V14.01,2013-09-11 22:29:00,
2013-09-11 15:34:00,87.8,40.5,27.26,North,350,4.0,7.6,19,0.00,,,0.00,VWS V14.01,2013-09-11 22:34:00,
2013-09-11 15:39:00,87.6,40.3,27.26,NNW,342,3.6,7.6,19,0.00,,,0.00,VWS V14.01,2013-09-11 22:39:00,
2013-09-11 15:44:00,88.0,40.6,27.26,NNW,342,2.2,7.6,19,0.00,,,0.00,VWS V14.01,2013-09-11 22:44:00,
2013-09-11 15:49:00,88.0,40.6,27.26,NE,54,2.7,7.6,19,0.00,,,0.00,VWS V14.01,2013-09-11 22:49:00,
2013-09-11 15:54:00,88.0,40.6,27.26,NE,54,2.7,7.6,19,0.00,,,0.00,VWS V14.01,2013-09-11 22:54:00,
2013-09-11 15:59:00,88.0,40.6,27.26,NE,54,2.7,7.6,19,0.00,,,0.00,VWS V14.01,2013-09-11 22:59:00,
2013-09-11 16:04:00,88.0,40.6,27.26,NE,54,2.7,7.6,19,0.00,,,0.00,VWS V14.01,2013-09-11 23:04:00,
2013-09-11 16:09:00,88.0,40.6,27.26,NE,54,2.7,7.6,19,0.00,,,0.00,VWS V14.01,2013-09-11 23:09:00,
2013-09-11 16:14:00,88.0,40.6,27.26,NE,54,2.7,7.6,19,0.00,,,0.00,VWS V14.01,2013-09-11 23:14:00,
2013-09-11 16:19:00,88.0,40.6,27.26,NE,54,2.7,7.6,19,0.00,,,0.00,VWS V14.01,2013-09-11 23:19:00,
2013-09-11 16:24:00,88.0,40.6,27.26,NE,54,2.7,7.6,19,0.00,,,0.00,VWS V14.01,2013-09-11 23:24:00,
2013-09-11 16:29:00,88.0,40.6,27.26,NE,54,2.7,7.6,19,0.00,,,0.00,VWS V14.01,2013-09-11 23:29:00,
2013-09-11 16:34:00,88.0,40.6,27.26,NE,54,2.7,7.6,19,0.00,,,0.00,VWS V14.01,2013-09-11 23:34:00,
2013-09-11 16:39:00,88.0,40.6,27.26,NE,54,2.7,7.6,19,0.00,,,0.00,VWS V14.01,2013-09-11 23:39:00,
2013-09-11 16:44:00,88.0,40.6,27.26,NE,54,2.7,7.6,19,0.00,,,0.00,VWS V14.01,2013-09-11 23:44:00,
2013-09-11 16:49:00,88.0,40.6,27.26,NE,54,2.7,7.6,19,0.00,,,0.00,VWS V14.01,2013-09-11 23:49:00,
2013-09-11 16:54:00,88.0,40.6,27.26,NE,54,2.7,7.6,19,0.00,,,0.00,VWS V14.01,2013-09-11 23:54:00,
2013-09-11 16:59:00,88.0,40.6,27.26,NE,54,2.7,7.6,19,0.00,,,0.00,VWS V14.01,2013-09-11 23:59:00,
2013-09-11 17:04:00,88.0,40.6,27.26,NE,54,2.7,7.6,19,0.00,,,0.00,VWS V14.01,2013-09-12 00:04:00,
2013-09-11 17:09:00,88.0,40.6,27.26,NE,54,2.7,7.6,19,0.00,,,0.00,VWS V14.01,2013-09-12 00:09:00,
2013-09-11 17:14:00,88.0,40.6,27.26,NE,54,2.7,7.6,19,0.00,,,0.00,VWS V14.01,2013-09-12 00:14:00,
2013-09-11 17:19:00,88.0,40.6,27.26,NE,54,2.7,7.6,19,0.00,,,0.00,VWS V14.01,2013-09-12 00:19:00,
2013-09-11 17:24:00,88.0,40.6,27.26,NE,54,2.7,7.6,19,0.00,,,0.00,VWS V14.01,2013-09-12 00:24:00,
2013-09-11 17:29:00,88.0,40.6,27.26,NE,54,2.7,7.6,19,0.00,,,0.00,VWS V14.01,2013-09-12 00:29:00,
2013-09-11 17:34:00,88.0,40.6,27.26,NE,54,2.7,7.6,19,0.00,,,0.00,VWS V14.01,2013-09-12 00:34:00,
2013-09-11 17:39:00,88.0,40.6,27.26,NE,54,2.7,7.6,19,0.00,,,0.00,VWS V14.01,2013-09-12 00:39:00,
2013-09-11 17:44:00,88.0,40.6,27.26,NE,54,2.7,7.6,19,0.00,,,0.00,VWS V14.01,2013-09-12 00:44:00,
2013-09-11 17:49:00,88.0,40.6,27.26,NE,54,2.7,7.6,19,0.00,,,0.00,VWS V14.01,2013-09-12 00:49:00,
2013-09-11 17:54:00,88.0,40.6,27.26,NE,54,2.7,7.6,19,0.00,,,0.00,VWS V14.01,2013-09-12 00:54:00,
2013-09-11 17:59:00,88.0,40.6,27.26,NE,54,2.7,7.6,19,0.00,,,0.00,VWS V14.01,2013-09-12 00:59:00,
2013-09-11 18:04:00,88.0,40.6,27.26,NE,54,2.7,7.6,19,0.00,,,0.00,VWS V14.01,2013-09-12 01:04:00,
2013-09-11 18:09:00,88.0,40.6,27.26,NE,54,2.7,7.6,19,0.00,,,0.00,VWS V14.01,2013-09-12 01:09:00,
2013-09-11 18:14:00,88.0,40.6,27.26,NE,54,2.7,7.6,19,0.00,,,0.00,VWS V14.01,2013-09-12 01:14:00,
2013-09-11 18:19:00,88.0,40.6,27.26,NE,54,2.7,7.6,19,0.00,,,0.00,VWS V14.01,2013-09-12 01:19:00,
2013-09-11 18:24:00,88.0,40.6,27.26,NE,54,2.7,7.6,19,0.00,,,0.00,VWS V14.01,2013-09-12 01:24:00,
2013-09-11 18:29:00,88.0,40.6,27.26,NE,54,2.7,7.6,19,0.00,,,0.00,VWS V14.01,2013-09-12 01:29:00,
2013-09-11 18:34:00,88.0,40.6,27.26,NE,54,2.7,7.6,19,0.00,,,0.00,VWS V14.01,2013-09-12 01:34:00,
2013-09-11 18:39:00,88.0,40.6,27.26,NE,54,2.7,7.6,19,0.00,,,0.00,VWS V14.01,2013-09-12 01:39:00,
2013-09-11 18:44:00,88.0,40.6,27.26,NE,54,2.7,7.6,19,0.00,,,0.00,VWS V14.01,2013-09-12 01:44:00,
2013-09-11 18:49:00,88.0,40.6,27.26,NE,54,2.7,7.6,19,0.00,,,0.00,VWS V14.01,2013-09-12 01:49:00,
2013-09-11 18:54:00,88.0,40.6,27.26,NE,54,2.7,7.6,19,0.00,,,0.00,VWS V14.01,2013-09-12 01:54:00,
2013-09-11 18:59:00,88.0,40.6,27.26,NE,54,2.7,7.6,19,0.00,,,0.00,VWS V14.01,2013-09-12 01:59:00,
2013-09-11 19:04:00,88.0,40.6,27.26,NE,54,2.7,7.6,19,0.00,,,0.00,VWS V14.01,2013-09-12 02:04:00,
2013-09-11 19:09:00,88.0,40.6,27.26,NE,54,2.7,7.6,19,0.00,,,0.00,VWS V14.01,2013-09-12 02:09:00,
2013-09-11 19:14:00,88.0,40.6,27.26,NE,54,2.7,7.6,19,0.00,,,0.00,VWS V14.01,2013-09-12 02:14:00,
2013-09-11 19:19:00,88.0,40.6,27.26,NE,54,2.7,7.6,19,0.00,,,0.00,VWS V14.01,2013-09-12 02:19:00,
2013-09-11 19:24:00,88.0,40.6,27.26,NE,54,2.7,7.6,19,0.00,,,0.00,VWS V14.01,2013-09-12 02:24:00,
2013-09-11 19:29:00,88.0,40.6,27.26,NE,54,2.7,7.6,19,0.00,,,0.00,VWS V14.01,2013-09-12 02:29:00,
2013-09-11 19:34:00,88.0,40.6,27.26,NE,54,2.7,7.6,19,0.00,,,0.00,VWS V14.01,2013-09-12 02:34:00,
2013-09-11 19:39:00,88.0,40.6,27.26,NE,54,2.7,7.6,19,0.00,,,0.00,VWS V14.01,2013-09-12 02:39:00,
2013-09-11 19:44:00,88.0,40.6,27.26,NE,54,2.7,7.6,19,0.00,,,0.00,VWS V14.01,2013-09-12 02:44:00,
2013-09-11 19:49:00,88.0,40.6,27.26,NE,54,2.7,7.6,19,0.00,,,0.00,VWS V14.01,2013-09-12 02:49:00,
2013-09-11 19:55:00,88.0,40.6,27.26,NE,54,2.7,7.6,19,0.00,,,0.00,VWS V14.01,2013-09-12 02:55:00,
2013-09-11 20:00:00,88.0,40.6,27.26,NE,54,2.7,7.6,19,0.00,,,0.00,VWS V14.01,2013-09-12 03:00:00,
2013-09-11 20:05:00,88.0,40.6,27.26,NE,54,2.7,7.6,19,0.00,,,0.00,VWS V14.01,2013-09-12 03:05:00,
2013-09-11 20:10:00,88.0,40.6,27.26,NE,54,2.7,7.6,19,0.00,,,0.00,VWS V14.01,2013-09-12 03:10:00,
2013-09-11 20:15:00,88.0,40.6,27.26,NE,54,2.7,7.6,19,0.00,,,0.00,VWS V14.01,2013-09-12 03:15:00,
2013-09-11 20:20:00,88.0,40.6,27.26,NE,54,2.7,7.6,19,0.00,,,0.00,VWS V14.01,2013-09-12 03:20:00,
2013-09-11 20:25:00,88.0,40.6,27.26,NE,54,2.7,7.6,19,0.00,,,0.00,VWS V14.01,2013-09-12 03:25:00,
2013-09-11 20:30:00,88.0,40.6,27.26,NE,54,2.7,7.6,19,0.00,,,0.00,VWS V14.01,2013-09-12 03:30:00,
2013-09-11 20:35:00,88.0,40.6,27.26,NE,54,2.7,7.6,19,0.00,,,0.00,VWS V14.01,2013-09-12 03:35:00,
2013-09-11 20:40:00,88.0,40.6,27.26,NE,54,2.7,7.6,19,0.00,,,0.00,VWS V14.01,2013-09-12 03:40:00,
2013-09-11 20:45:00,88.0,40.6,27.26,NE,54,2.7,7.6,19,0.00,,,0.00,VWS V14.01,2013-09-12 03:45:00,
2013-09-11 20:50:00,88.0,40.6,27.26,NE,54,2.7,7.6,19,0.00,,,0.00,VWS V14.01,2013-09-12 03:50:00,
2013-09-11 20:55:00,88.0,40.6,27.26,NE,54,2.7,7.6,19,0.00,,,0.00,VWS V14.01,2013-09-12 03:55:00,
2013-09-11 21:00:00,88.0,40.6,27.26,NE,54,2.7,7.6,19,0.00,,,0.00,VWS V14.01,2013-09-12 04:00:00,
2013-09-11 21:01:00,88.0,40.6,27.26,NE,54,2.7,7.6,19,0.00,,,0.00,VWS V14.01,2013-09-12 04:01:00,
2013-09-11 21:06:00,88.0,40.6,27.26,NE,54,2.7,7.6,19,0.00,,,0.00,VWS V14.01,2013-09-12 04:06:00,
2013-09-11 21:11:00,88.0,40.6,27.26,NE,54,2.7,7.6,19,0.00,,,0.00,VWS V14.01,2013-09-12 04:11:00,
2013-09-11 21:16:00,88.0,40.6,27.26,NE,54,2.7,7.6,19,0.00,,,0.00,VWS V14.01,2013-09-12 04:16:00,
2013-09-11 21:21:00,88.0,40.6,27.26,NE,54,2.7,7.6,19,0.00,,,0.00,VWS V14.01,2013-09-12 04:21:00,
2013-09-11 21:26:00,88.0,40.6,27.26,NE,54,2.7,7.6,19,0.00,,,0.00,VWS V14.01,2013-09-12 04:26:00,
2013-09-11 21:31:00,88.0,40.6,27.26,NE,54,2.7,7.6,19,0.00,,,0.00,VWS V14.01,2013-09-12 04:31:00,
2013-09-11 21:36:00,88.0,40.6,27.26,NE,54,2.7,7.6,19,0.00,,,0.00,VWS V14.01,2013-09-12 04:36:00,